sensor_id;sensor_type;location;lat;lon;timestamp;pressure;altitude;pressure_sealevel;temperature;humidity
81686;BME280;71102;50.960;6.888;2023-07-20T00:01:27;100961.91;;;19.08;60.34
81686;BME280;71102;50.960;6.888;2023-07-20T00:03:52;100957.47;;;19.07;59.99
81686;BME280;71102;50.960;6.888;2023-07-20T00:06:18;100949.50;;;19.04;60.17
81686;BME280;71102;50.960;6.888;2023-07-20T00:08:43;100950.31;;;19.06;60.04
81686;BME280;71102;50.960;6.888;2023-07-20T00:11:08;100953.91;;;19.06;60.10
81686;BME280;71102;50.960;6.888;2023-07-20T00:13:34;100954.94;;;19.01;60.17
81686;BME280;71102;50.960;6.888;2023-07-20T00:15:59;100955.91;;;18.98;60.27
81686;BME280;71102;50.960;6.888;2023-07-20T00:18:24;100953.19;;;19.00;60.41
81686;BME280;71102;50.960;6.888;2023-07-20T00:20:50;100954.13;;;18.97;59.92
81686;BME280;71102;50.960;6.888;2023-07-20T00:23:15;100950.34;;;19.04;59.79
81686;BME280;71102;50.960;6.888;2023-07-20T00:25:40;100952.13;;;19.05;59.80
81686;BME280;71102;50.960;6.888;2023-07-20T00:28:06;100966.56;;;19.01;60.22
81686;BME280;71102;50.960;6.888;2023-07-20T00:30:31;100961.34;;;18.95;60.36
81686;BME280;71102;50.960;6.888;2023-07-20T00:32:56;100963.25;;;18.90;60.52
81686;BME280;71102;50.960;6.888;2023-07-20T00:35:22;100956.13;;;18.89;60.64
81686;BME280;71102;50.960;6.888;2023-07-20T00:37:47;100964.25;;;18.86;60.74
81686;BME280;71102;50.960;6.888;2023-07-20T00:40:12;100956.19;;;18.86;60.95
81686;BME280;71102;50.960;6.888;2023-07-20T00:42:38;100958.03;;;18.86;60.96
81686;BME280;71102;50.960;6.888;2023-07-20T00:45:04;100952.56;;;18.87;61.08
81686;BME280;71102;50.960;6.888;2023-07-20T00:47:30;100955.19;;;18.90;61.20
81686;BME280;71102;50.960;6.888;2023-07-20T00:49:55;100954.25;;;18.93;61.32
81686;BME280;71102;50.960;6.888;2023-07-20T00:52:23;100948.03;;;18.91;61.50
81686;BME280;71102;50.960;6.888;2023-07-20T00:54:50;100949.84;;;18.89;61.68
81686;BME280;71102;50.960;6.888;2023-07-20T00:57:17;100953.78;;;18.76;62.33
81686;BME280;71102;50.960;6.888;2023-07-20T00:59:44;100951.22;;;18.71;62.28
81686;BME280;71102;50.960;6.888;2023-07-20T01:02:10;100952.06;;;18.72;62.66
81686;BME280;71102;50.960;6.888;2023-07-20T01:04:35;100958.34;;;18.72;63.03
81686;BME280;71102;50.960;6.888;2023-07-20T01:07:11;100950.38;;;18.68;63.04
81686;BME280;71102;50.960;6.888;2023-07-20T01:12:51;100955.66;;;18.72;62.80
81686;BME280;71102;50.960;6.888;2023-07-20T01:15:15;100951.97;;;18.76;63.07
81686;BME280;71102;50.960;6.888;2023-07-20T01:17:41;100953.91;;;18.71;63.29
81686;BME280;71102;50.960;6.888;2023-07-20T01:20:07;100954.00;;;18.67;63.50
81686;BME280;71102;50.960;6.888;2023-07-20T01:23:17;100953.03;;;18.69;63.68
81686;BME280;71102;50.960;6.888;2023-07-20T01:31:34;100953.50;;;18.51;64.79
81686;BME280;71102;50.960;6.888;2023-07-20T01:34:02;100949.19;;;18.44;65.15
81686;BME280;71102;50.960;6.888;2023-07-20T01:36:30;100944.88;;;18.37;65.39
81686;BME280;71102;50.960;6.888;2023-07-20T01:38:58;100953.84;;;18.35;65.68
81686;BME280;71102;50.960;6.888;2023-07-20T01:41:24;100950.69;;;18.16;66.37
81686;BME280;71102;50.960;6.888;2023-07-20T01:43:50;100947.84;;;18.22;66.30
81686;BME280;71102;50.960;6.888;2023-07-20T01:46:15;100947.06;;;18.19;66.27
81686;BME280;71102;50.960;6.888;2023-07-20T01:48:41;100946.13;;;18.20;66.56
81686;BME280;71102;50.960;6.888;2023-07-20T01:51:07;100947.06;;;18.19;66.39
81686;BME280;71102;50.960;6.888;2023-07-20T01:53:32;100945.09;;;18.25;66.39
81686;BME280;71102;50.960;6.888;2023-07-20T01:55:58;100952.22;;;18.26;66.47
81686;BME280;71102;50.960;6.888;2023-07-20T01:58:23;100942.28;;;18.31;66.47
81686;BME280;71102;50.960;6.888;2023-07-20T02:00:49;100939.50;;;18.37;65.99
81686;BME280;71102;50.960;6.888;2023-07-20T02:03:14;100942.19;;;18.37;66.05
81686;BME280;71102;50.960;6.888;2023-07-20T02:05:42;100948.72;;;18.24;66.74
81686;BME280;71102;50.960;6.888;2023-07-20T02:08:08;100944.47;;;18.14;66.74
81686;BME280;71102;50.960;6.888;2023-07-20T02:10:34;100944.53;;;18.11;67.34
81686;BME280;71102;50.960;6.888;2023-07-20T02:12:59;100949.38;;;17.94;68.12
81686;BME280;71102;50.960;6.888;2023-07-20T02:15:24;100945.00;;;17.90;68.38
81686;BME280;71102;50.960;6.888;2023-07-20T02:17:50;100943.28;;;17.86;68.72
81686;BME280;71102;50.960;6.888;2023-07-20T02:20:16;100937.91;;;17.87;68.79
81686;BME280;71102;50.960;6.888;2023-07-20T02:22:41;100932.53;;;17.87;68.67
81686;BME280;71102;50.960;6.888;2023-07-20T02:25:07;100938.81;;;17.86;68.72
81686;BME280;71102;50.960;6.888;2023-07-20T02:27:34;100932.63;;;17.83;69.04
81686;BME280;71102;50.960;6.888;2023-07-20T02:29:59;100936.28;;;17.80;68.96
81686;BME280;71102;50.960;6.888;2023-07-20T02:32:25;100938.28;;;17.68;69.80
81686;BME280;71102;50.960;6.888;2023-07-20T02:34:50;100947.28;;;17.65;69.82
81686;BME280;71102;50.960;6.888;2023-07-20T02:37:16;100943.81;;;17.60;70.20
81686;BME280;71102;50.960;6.888;2023-07-20T02:39:42;100937.69;;;17.54;70.62
81686;BME280;71102;50.960;6.888;2023-07-20T02:42:07;100943.06;;;17.52;70.48
81686;BME280;71102;50.960;6.888;2023-07-20T02:44:33;100945.75;;;17.52;70.47
81686;BME280;71102;50.960;6.888;2023-07-20T02:46:59;100941.47;;;17.44;70.92
81686;BME280;71102;50.960;6.888;2023-07-20T02:49:24;100950.59;;;17.31;71.48
81686;BME280;71102;50.960;6.888;2023-07-20T02:51:50;100947.28;;;17.17;71.78
81686;BME280;71102;50.960;6.888;2023-07-20T02:54:15;100946.44;;;17.16;71.97
81686;BME280;71102;50.960;6.888;2023-07-20T02:56:41;100949.19;;;17.12;72.23
81686;BME280;71102;50.960;6.888;2023-07-20T02:59:06;100945.88;;;16.98;72.64
81686;BME280;71102;50.960;6.888;2023-07-20T03:01:31;100943.16;;;16.99;72.50
81686;BME280;71102;50.960;6.888;2023-07-20T03:03:57;100944.00;;;17.01;72.16
81686;BME280;71102;50.960;6.888;2023-07-20T03:06:22;100948.50;;;16.99;72.46
81686;BME280;71102;50.960;6.888;2023-07-20T03:08:47;100951.16;;;17.01;72.18
81686;BME280;71102;50.960;6.888;2023-07-20T03:11:16;100945.16;;;16.87;72.60
81686;BME280;71102;50.960;6.888;2023-07-20T03:13:42;100947.72;;;16.93;72.26
81686;BME280;71102;50.960;6.888;2023-07-20T03:16:08;100949.69;;;16.82;73.01
81686;BME280;71102;50.960;6.888;2023-07-20T03:18:33;100949.50;;;16.94;72.48
81686;BME280;71102;50.960;6.888;2023-07-20T03:20:59;100948.59;;;16.95;72.21
81686;BME280;71102;50.960;6.888;2023-07-20T03:23:24;100952.31;;;16.85;72.95
81686;BME280;71102;50.960;6.888;2023-07-20T03:25:50;100948.94;;;16.74;72.95
81686;BME280;71102;50.960;6.888;2023-07-20T03:28:15;100949.69;;;16.82;72.96
81686;BME280;71102;50.960;6.888;2023-07-20T03:30:40;100945.25;;;16.81;72.98
81686;BME280;71102;50.960;6.888;2023-07-20T03:33:06;100944.22;;;16.89;72.48
81686;BME280;71102;50.960;6.888;2023-07-20T03:35:31;100948.63;;;16.92;72.45
81686;BME280;71102;50.960;6.888;2023-07-20T03:37:57;100946.16;;;16.80;73.03
81686;BME280;71102;50.960;6.888;2023-07-20T03:40:22;100947.97;;;16.79;72.98
81686;BME280;71102;50.960;6.888;2023-07-20T03:42:47;100954.00;;;16.90;72.34
81686;BME280;71102;50.960;6.888;2023-07-20T03:45:13;100953.16;;;16.88;72.40
81686;BME280;71102;50.960;6.888;2023-07-20T03:47:38;100955.88;;;16.87;72.56
81686;BME280;71102;50.960;6.888;2023-07-20T03:50:04;100964.91;;;16.78;72.67
81686;BME280;71102;50.960;6.888;2023-07-20T03:52:30;100965.81;;;16.79;72.88
81686;BME280;71102;50.960;6.888;2023-07-20T03:54:55;100967.63;;;16.77;72.83
81686;BME280;71102;50.960;6.888;2023-07-20T03:57:20;100964.09;;;16.75;72.87
81686;BME280;71102;50.960;6.888;2023-07-20T03:59:46;100974.75;;;16.78;72.59
81686;BME280;71102;50.960;6.888;2023-07-20T04:02:11;100975.69;;;16.75;72.72
81686;BME280;71102;50.960;6.888;2023-07-20T04:04:36;100976.38;;;16.88;72.38
81686;BME280;71102;50.960;6.888;2023-07-20T04:07:02;100985.97;;;17.01;71.97
81686;BME280;71102;50.960;6.888;2023-07-20T04:09:27;100987.69;;;17.05;71.49
81686;BME280;71102;50.960;6.888;2023-07-20T04:11:53;100984.19;;;17.00;71.73
81686;BME280;71102;50.960;6.888;2023-07-20T04:14:18;100987.69;;;17.05;71.56
81686;BME280;71102;50.960;6.888;2023-07-20T04:16:46;100997.41;;;17.10;71.43
81686;BME280;71102;50.960;6.888;2023-07-20T04:19:11;100984.81;;;17.14;70.91
81686;BME280;71102;50.960;6.888;2023-07-20T04:21:40;100983.88;;;17.18;70.97
81686;BME280;71102;50.960;6.888;2023-07-20T04:24:05;100987.41;;;17.20;70.51
81686;BME280;71102;50.960;6.888;2023-07-20T04:26:31;100997.38;;;17.12;71.12
81686;BME280;71102;50.960;6.888;2023-07-20T04:28:57;100992.78;;;17.18;70.79
81686;BME280;71102;50.960;6.888;2023-07-20T04:31:37;100999.84;;;17.22;70.81
81686;BME280;71102;50.960;6.888;2023-07-20T04:34:03;100997.09;;;17.27;70.66
81686;BME280;71102;50.960;6.888;2023-07-20T04:36:29;101000.53;;;17.36;70.20
81686;BME280;71102;50.960;6.888;2023-07-20T04:38:54;100993.34;;;17.37;70.08
81686;BME280;71102;50.960;6.888;2023-07-20T04:41:21;100996.91;;;17.39;70.03
81686;BME280;71102;50.960;6.888;2023-07-20T04:43:48;100996.91;;;17.39;70.28
81686;BME280;71102;50.960;6.888;2023-07-20T04:46:18;100996.94;;;17.36;70.43
81686;BME280;71102;50.960;6.888;2023-07-20T04:48:43;101002.28;;;17.37;70.16
81686;BME280;71102;50.960;6.888;2023-07-20T04:51:09;100999.53;;;17.40;70.22
81686;BME280;71102;50.960;6.888;2023-07-20T04:53:34;101003.09;;;17.41;70.06
81686;BME280;71102;50.960;6.888;2023-07-20T04:56:00;101000.66;;;17.29;70.69
81686;BME280;71102;50.960;6.888;2023-07-20T04:58:26;100998.97;;;17.22;71.12
81686;BME280;71102;50.960;6.888;2023-07-20T05:00:53;101001.66;;;17.22;71.13
81686;BME280;71102;50.960;6.888;2023-07-20T05:03:19;100995.34;;;17.26;70.93
81686;BME280;71102;50.960;6.888;2023-07-20T05:05:46;101005.94;;;17.32;70.76
81686;BME280;71102;50.960;6.888;2023-07-20T05:08:12;101000.75;;;17.23;71.02
81686;BME280;71102;50.960;6.888;2023-07-20T05:10:38;101009.59;;;17.28;71.07
81686;BME280;71102;50.960;6.888;2023-07-20T05:13:03;101005.88;;;17.36;70.83
81686;BME280;71102;50.960;6.888;2023-07-20T05:15:28;101011.13;;;17.41;70.36
81686;BME280;71102;50.960;6.888;2023-07-20T05:17:55;101014.72;;;17.43;70.47
81686;BME280;71102;50.960;6.888;2023-07-20T05:20:21;101004.09;;;17.35;70.77
81686;BME280;71102;50.960;6.888;2023-07-20T05:22:46;101005.94;;;17.32;70.89
81686;BME280;71102;50.960;6.888;2023-07-20T05:25:12;101005.75;;;17.41;70.79
81686;BME280;71102;50.960;6.888;2023-07-20T05:27:38;101006.75;;;17.37;70.92
81686;BME280;71102;50.960;6.888;2023-07-20T05:30:04;101009.28;;;17.47;70.47
81686;BME280;71102;50.960;6.888;2023-07-20T05:32:30;101011.13;;;17.41;70.81
81686;BME280;71102;50.960;6.888;2023-07-20T05:34:55;101008.44;;;17.41;70.87
81686;BME280;71102;50.960;6.888;2023-07-20T05:37:21;101010.09;;;17.51;70.89
81686;BME280;71102;50.960;6.888;2023-07-20T05:39:46;101011.06;;;17.47;70.88
81686;BME280;71102;50.960;6.888;2023-07-20T05:42:12;101015.44;;;17.51;70.70
81686;BME280;71102;50.960;6.888;2023-07-20T05:44:37;101009.94;;;17.58;70.36
81686;BME280;71102;50.960;6.888;2023-07-20T05:47:03;101016.09;;;17.65;70.19
81686;BME280;71102;50.960;6.888;2023-07-20T05:49:28;101014.25;;;17.67;70.33
81686;BME280;71102;50.960;6.888;2023-07-20T05:51:56;101005.22;;;17.72;70.13
81686;BME280;71102;50.960;6.888;2023-07-20T05:54:21;101014.88;;;17.81;70.04
81686;BME280;71102;50.960;6.888;2023-07-20T05:56:47;101015.53;;;17.92;69.62
81686;BME280;71102;50.960;6.888;2023-07-20T05:59:12;101028.75;;;18.01;68.90
81686;BME280;71102;50.960;6.888;2023-07-20T06:01:38;101025.31;;;17.96;68.82
81686;BME280;71102;50.960;6.888;2023-07-20T06:04:03;101021.53;;;18.06;68.96
81686;BME280;71102;50.960;6.888;2023-07-20T06:06:29;101027.44;;;18.23;68.24
81686;BME280;71102;50.960;6.888;2023-07-20T06:08:54;101026.81;;;18.09;68.46
81686;BME280;71102;50.960;6.888;2023-07-20T06:11:20;101031.38;;;18.04;68.67
81686;BME280;71102;50.960;6.888;2023-07-20T06:13:45;101032.53;;;17.91;68.90
81686;BME280;71102;50.960;6.888;2023-07-20T06:16:11;101033.09;;;18.08;68.75
81686;BME280;71102;50.960;6.888;2023-07-20T06:18:36;101033.53;;;17.87;69.25
81686;BME280;71102;50.960;6.888;2023-07-20T06:21:02;101031.97;;;17.74;69.54
81686;BME280;71102;50.960;6.888;2023-07-20T06:23:27;101040.28;;;17.62;70.11
81686;BME280;71102;50.960;6.888;2023-07-20T06:25:52;101032.03;;;17.71;69.66
81686;BME280;71102;50.960;6.888;2023-07-20T06:28:18;101043.34;;;17.86;69.19
81686;BME280;71102;50.960;6.888;2023-07-20T06:30:43;101043.00;;;18.05;68.48
81686;BME280;71102;50.960;6.888;2023-07-20T06:33:09;101034.09;;;18.02;68.17
81686;BME280;71102;50.960;6.888;2023-07-20T06:35:34;101049.19;;;18.08;68.37
81686;BME280;71102;50.960;6.888;2023-07-20T06:38:00;101032.84;;;18.20;67.82
81686;BME280;71102;50.960;6.888;2023-07-20T06:40:25;101039.97;;;18.21;68.00
81686;BME280;71102;50.960;6.888;2023-07-20T06:42:50;101033.84;;;18.16;67.73
81686;BME280;71102;50.960;6.888;2023-07-20T06:45:16;101029.09;;;18.29;67.59
81686;BME280;71102;50.960;6.888;2023-07-20T06:47:41;101048.09;;;18.17;67.56
81686;BME280;71102;50.960;6.888;2023-07-20T06:50:07;101035.47;;;18.23;67.00
81686;BME280;71102;50.960;6.888;2023-07-20T06:52:32;101030.91;;;18.27;66.38
81686;BME280;71102;50.960;6.888;2023-07-20T06:54:58;101033.38;;;18.39;65.95
81686;BME280;71102;50.960;6.888;2023-07-20T06:57:23;101043.38;;;18.29;66.36
81686;BME280;71102;50.960;6.888;2023-07-20T06:59:49;101038.78;;;18.37;66.01
81686;BME280;71102;50.960;6.888;2023-07-20T07:02:14;101041.88;;;18.59;65.89
81686;BME280;71102;50.960;6.888;2023-07-20T07:04:40;101040.69;;;18.70;65.25
81686;BME280;71102;50.960;6.888;2023-07-20T07:07:05;101047.03;;;18.68;65.45
81686;BME280;71102;50.960;6.888;2023-07-20T07:09:30;101055.59;;;18.45;66.31
81686;BME280;71102;50.960;6.888;2023-07-20T07:11:56;101046.47;;;18.52;66.42
81686;BME280;71102;50.960;6.888;2023-07-20T07:14:21;101051.00;;;18.52;66.03
81686;BME280;71102;50.960;6.888;2023-07-20T07:16:47;101053.59;;;18.53;66.38
81686;BME280;71102;50.960;6.888;2023-07-20T07:19:12;101046.41;;;18.55;66.20
81686;BME280;71102;50.960;6.888;2023-07-20T07:21:37;101047.97;;;18.65;65.90
81686;BME280;71102;50.960;6.888;2023-07-20T07:24:03;101055.91;;;18.71;65.52
81686;BME280;71102;50.960;6.888;2023-07-20T07:26:28;101050.63;;;18.67;65.25
81686;BME280;71102;50.960;6.888;2023-07-20T07:28:53;101057.41;;;18.84;64.59
81686;BME280;71102;50.960;6.888;2023-07-20T07:31:19;101055.16;;;19.03;63.75
81686;BME280;71102;50.960;6.888;2023-07-20T07:33:44;101066.22;;;18.89;63.63
81686;BME280;71102;50.960;6.888;2023-07-20T07:36:09;101058.34;;;18.80;64.23
81686;BME280;71102;50.960;6.888;2023-07-20T07:38:35;101061.84;;;18.85;64.03
81686;BME280;71102;50.960;6.888;2023-07-20T07:41:00;101059.56;;;19.05;62.79
81686;BME280;71102;50.960;6.888;2023-07-20T07:43:25;101052.66;;;19.32;62.14
81686;BME280;71102;50.960;6.888;2023-07-20T07:45:54;101058.22;;;19.59;61.13
81686;BME280;71102;50.960;6.888;2023-07-20T07:48:19;101062.47;;;19.68;60.22
81686;BME280;71102;50.960;6.888;2023-07-20T07:50:44;101064.19;;;19.70;60.26
81686;BME280;71102;50.960;6.888;2023-07-20T07:53:10;101063.34;;;19.68;60.40
81686;BME280;71102;50.960;6.888;2023-07-20T07:55:35;101070.25;;;19.78;60.19
81686;BME280;71102;50.960;6.888;2023-07-20T07:58:00;101073.47;;;19.59;59.85
81686;BME280;71102;50.960;6.888;2023-07-20T08:00:26;101073.63;;;19.53;60.46
81686;BME280;71102;50.960;6.888;2023-07-20T08:02:51;101068.34;;;19.48;61.08
81686;BME280;71102;50.960;6.888;2023-07-20T08:05:17;101066.59;;;19.47;60.98
81686;BME280;71102;50.960;6.888;2023-07-20T08:07:42;101068.81;;;19.30;60.85
81686;BME280;71102;50.960;6.888;2023-07-20T08:10:08;101072.44;;;19.29;60.84
81686;BME280;71102;50.960;6.888;2023-07-20T08:12:34;101074.44;;;19.20;61.98
81686;BME280;71102;50.960;6.888;2023-07-20T08:14:59;101069.81;;;19.26;61.26
81686;BME280;71102;50.960;6.888;2023-07-20T08:17:24;101066.25;;;19.26;60.87
81686;BME280;71102;50.960;6.888;2023-07-20T08:19:50;101071.38;;;19.36;61.05
81686;BME280;71102;50.960;6.888;2023-07-20T08:22:15;101071.03;;;19.48;60.14
81686;BME280;71102;50.960;6.888;2023-07-20T08:24:42;101074.19;;;19.65;59.21
81686;BME280;71102;50.960;6.888;2023-07-20T08:27:07;101072.53;;;19.93;58.16
81686;BME280;71102;50.960;6.888;2023-07-20T08:29:33;101074.75;;;20.11;56.63
81686;BME280;71102;50.960;6.888;2023-07-20T08:31:59;101074.75;;;20.11;56.19
81686;BME280;71102;50.960;6.888;2023-07-20T08:34:24;101067.06;;;20.28;55.81
81686;BME280;71102;50.960;6.888;2023-07-20T08:36:49;101068.31;;;20.48;54.91
81686;BME280;71102;50.960;6.888;2023-07-20T08:39:15;101071.56;;;20.59;54.93
81686;BME280;71102;50.960;6.888;2023-07-20T08:41:42;101077.38;;;20.74;54.50
81686;BME280;71102;50.960;6.888;2023-07-20T08:44:08;101077.78;;;20.61;53.10
81686;BME280;71102;50.960;6.888;2023-07-20T08:46:34;101082.59;;;20.50;52.91
81686;BME280;71102;50.960;6.888;2023-07-20T08:49:00;101086.59;;;20.66;52.03
81686;BME280;71102;50.960;6.888;2023-07-20T08:51:25;101076.00;;;20.89;51.62
81686;BME280;71102;50.960;6.888;2023-07-20T08:53:51;101072.09;;;21.00;51.03
81686;BME280;71102;50.960;6.888;2023-07-20T08:56:18;101079.38;;;20.97;49.44
81686;BME280;71102;50.960;6.888;2023-07-20T08:58:45;101070.25;;;21.01;50.55
81686;BME280;71102;50.960;6.888;2023-07-20T09:01:11;101066.66;;;21.02;50.82
81686;BME280;71102;50.960;6.888;2023-07-20T09:03:36;101069.31;;;21.03;51.02
81686;BME280;71102;50.960;6.888;2023-07-20T09:06:02;101065.31;;;21.15;51.26
81686;BME280;71102;50.960;6.888;2023-07-20T09:08:27;101076.00;;;21.18;50.90
81686;BME280;71102;50.960;6.888;2023-07-20T09:10:52;101065.84;;;21.26;50.06
81686;BME280;71102;50.960;6.888;2023-07-20T09:13:18;101067.09;;;21.16;48.20
81686;BME280;71102;50.960;6.888;2023-07-20T09:15:47;101069.56;;;21.22;48.32
81686;BME280;71102;50.960;6.888;2023-07-20T09:18:23;101066.44;;;21.35;48.75
81686;BME280;71102;50.960;6.888;2023-07-20T09:20:49;101063.06;;;21.29;49.64
81686;BME280;71102;50.960;6.888;2023-07-20T09:23:14;101061.69;;;21.42;48.88
81686;BME280;71102;50.960;6.888;2023-07-20T09:25:40;101070.88;;;21.10;49.05
81686;BME280;71102;50.960;6.888;2023-07-20T09:28:05;101069.78;;;21.16;48.90
81686;BME280;71102;50.960;6.888;2023-07-20T09:30:31;101070.22;;;21.30;48.46
81686;BME280;71102;50.960;6.888;2023-07-20T09:32:56;101069.34;;;21.55;48.42
81686;BME280;71102;50.960;6.888;2023-07-20T09:35:22;101077.78;;;21.71;47.90
81686;BME280;71102;50.960;6.888;2023-07-20T09:37:57;101069.69;;;21.71;48.96
81686;BME280;71102;50.960;6.888;2023-07-20T09:40:24;101066.59;;;21.57;48.50
81686;BME280;71102;50.960;6.888;2023-07-20T09:42:52;101068.75;;;21.72;48.15
81686;BME280;71102;50.960;6.888;2023-07-20T09:45:17;101068.03;;;21.67;46.99
81686;BME280;71102;50.960;6.888;2023-07-20T09:47:43;101071.03;;;21.58;46.95
81686;BME280;71102;50.960;6.888;2023-07-20T09:50:08;101065.03;;;21.50;45.48
81686;BME280;71102;50.960;6.888;2023-07-20T09:52:34;101060.41;;;21.53;44.10
81686;BME280;71102;50.960;6.888;2023-07-20T09:55:00;101060.06;;;21.64;45.02
81686;BME280;71102;50.960;6.888;2023-07-20T09:57:28;101061.19;;;21.83;46.44
81686;BME280;71102;50.960;6.888;2023-07-20T09:59:54;101054.22;;;22.02;45.69
81686;BME280;71102;50.960;6.888;2023-07-20T10:02:33;101056.22;;;22.20;45.37
81686;BME280;71102;50.960;6.888;2023-07-20T10:05:02;101060.59;;;22.24;45.75
81686;BME280;71102;50.960;6.888;2023-07-20T10:07:30;101058.94;;;22.20;44.72
81686;BME280;71102;50.960;6.888;2023-07-20T10:09:56;101060.03;;;22.14;45.00
81686;BME280;71102;50.960;6.888;2023-07-20T10:12:25;101052.56;;;22.22;43.50
81686;BME280;71102;50.960;6.888;2023-07-20T10:15:23;101064.22;;;22.23;42.90
81686;BME280;71102;50.960;6.888;2023-07-20T10:18:12;101052.19;;;22.56;42.40
81686;BME280;71102;50.960;6.888;2023-07-20T10:20:40;101058.75;;;22.72;41.37
81686;BME280;71102;50.960;6.888;2023-07-20T10:23:06;101049.03;;;22.90;41.79
81686;BME280;71102;50.960;6.888;2023-07-20T10:25:32;101049.16;;;23.08;40.77
81686;BME280;71102;50.960;6.888;2023-07-20T10:27:58;101050.34;;;23.24;40.78
81686;BME280;71102;50.960;6.888;2023-07-20T10:30:24;101042.16;;;23.47;41.12
81686;BME280;71102;50.960;6.888;2023-07-20T10:32:51;101036.91;;;23.64;40.55
81686;BME280;71102;50.960;6.888;2023-07-20T10:35:17;101037.13;;;23.38;40.77
81686;BME280;71102;50.960;6.888;2023-07-20T10:37:53;101032.97;;;23.51;41.55
81686;BME280;71102;50.960;6.888;2023-07-20T10:40:32;101040.41;;;23.46;41.11
81686;BME280;71102;50.960;6.888;2023-07-20T10:43:05;101027.63;;;23.28;41.13
81686;BME280;71102;50.960;6.888;2023-07-20T10:45:52;101038.97;;;23.38;40.26
81686;BME280;71102;50.960;6.888;2023-07-20T10:48:22;101028.31;;;23.55;40.59
81686;BME280;71102;50.960;6.888;2023-07-20T10:51:14;101027.44;;;23.54;38.98
81686;BME280;71102;50.960;6.888;2023-07-20T10:53:40;101021.13;;;23.54;39.78
81686;BME280;71102;50.960;6.888;2023-07-20T10:56:11;101017.13;;;23.62;39.71
81686;BME280;71102;50.960;6.888;2023-07-20T10:58:37;101016.94;;;23.67;39.58
81686;BME280;71102;50.960;6.888;2023-07-20T11:01:03;101020.28;;;23.93;38.71
81686;BME280;71102;50.960;6.888;2023-07-20T11:03:34;101008.72;;;24.10;38.25
81686;BME280;71102;50.960;6.888;2023-07-20T11:11:30;101019.41;;;24.13;38.25
81686;BME280;71102;50.960;6.888;2023-07-20T11:13:59;101015.84;;;24.31;37.92
81686;BME280;71102;50.960;6.888;2023-07-20T11:16:43;101012.56;;;24.24;38.99
81686;BME280;71102;50.960;6.888;2023-07-20T11:19:25;101028.53;;;24.10;39.11
81686;BME280;71102;50.960;6.888;2023-07-20T11:21:56;101022.19;;;24.11;38.21
81686;BME280;71102;50.960;6.888;2023-07-20T11:24:21;101020.69;;;24.24;38.86
81686;BME280;71102;50.960;6.888;2023-07-20T11:26:52;101019.06;;;23.80;39.39
81686;BME280;71102;50.960;6.888;2023-07-20T11:29:19;101019.06;;;23.80;39.41
81686;BME280;71102;50.960;6.888;2023-07-20T11:31:45;101015.34;;;24.23;37.83
81686;BME280;71102;50.960;6.888;2023-07-20T11:34:12;101008.09;;;24.60;36.89
81686;BME280;71102;50.960;6.888;2023-07-20T11:36:40;101003.00;;;24.73;35.90
81686;BME280;71102;50.960;6.888;2023-07-20T11:39:07;101010.13;;;24.75;37.08
81686;BME280;71102;50.960;6.888;2023-07-20T11:41:33;101012.16;;;24.70;35.11
81686;BME280;71102;50.960;6.888;2023-07-20T11:43:58;101007.16;;;24.61;36.12
81686;BME280;71102;50.960;6.888;2023-07-20T11:46:24;101014.16;;;24.85;35.94
81686;BME280;71102;50.960;6.888;2023-07-20T11:48:56;101010.31;;;24.52;35.40
81686;BME280;71102;50.960;6.888;2023-07-20T11:51:21;101011.34;;;24.50;36.24
81686;BME280;71102;50.960;6.888;2023-07-20T11:53:47;101011.53;;;24.27;35.85
81686;BME280;71102;50.960;6.888;2023-07-20T11:56:13;101006.75;;;23.73;36.57
81686;BME280;71102;50.960;6.888;2023-07-20T11:58:45;101012.13;;;23.33;37.88
81686;BME280;71102;50.960;6.888;2023-07-20T12:01:14;101006.00;;;23.28;38.74
81686;BME280;71102;50.960;6.888;2023-07-20T12:03:41;100998.47;;;23.15;39.09
81686;BME280;71102;50.960;6.888;2023-07-20T12:06:08;101006.47;;;22.73;39.62
81686;BME280;71102;50.960;6.888;2023-07-20T12:08:33;101009.88;;;22.56;40.04
81686;BME280;71102;50.960;6.888;2023-07-20T12:10:59;101008.47;;;22.45;40.45
81686;BME280;71102;50.960;6.888;2023-07-20T12:13:35;101010.34;;;22.43;40.96
81686;BME280;71102;50.960;6.888;2023-07-20T12:16:08;101007.75;;;22.40;40.90
81686;BME280;71102;50.960;6.888;2023-07-20T12:18:36;101004.72;;;22.26;41.01
81686;BME280;71102;50.960;6.888;2023-07-20T12:21:02;101001.69;;;22.35;40.79
81686;BME280;71102;50.960;6.888;2023-07-20T12:23:41;101017.16;;;22.30;40.92
81686;BME280;71102;50.960;6.888;2023-07-20T12:26:08;101005.78;;;22.22;41.38
81686;BME280;71102;50.960;6.888;2023-07-20T12:28:36;101000.94;;;22.30;41.61
81686;BME280;71102;50.960;6.888;2023-07-20T12:31:03;100995.69;;;22.50;40.34
81686;BME280;71102;50.960;6.888;2023-07-20T12:33:30;101001.38;;;22.65;41.04
81686;BME280;71102;50.960;6.888;2023-07-20T12:35:55;100999.34;;;22.72;40.15
81686;BME280;71102;50.960;6.888;2023-07-20T12:38:21;100999.53;;;22.89;40.14
81686;BME280;71102;50.960;6.888;2023-07-20T12:40:47;100993.53;;;22.81;40.01
81686;BME280;71102;50.960;6.888;2023-07-20T12:43:13;101000.72;;;23.04;39.94
81686;BME280;71102;50.960;6.888;2023-07-20T12:45:38;100993.84;;;23.38;39.82
81686;BME280;71102;50.960;6.888;2023-07-20T12:48:03;101001.72;;;23.64;38.83
81686;BME280;71102;50.960;6.888;2023-07-20T12:50:29;100997.50;;;24.17;38.35
81686;BME280;71102;50.960;6.888;2023-07-20T12:52:54;100998.53;;;26.92;31.75
81686;BME280;71102;50.960;6.888;2023-07-20T12:55:19;100988.91;;;26.71;33.09
81686;BME280;71102;50.960;6.888;2023-07-20T12:57:45;100995.75;;;26.45;33.22
81686;BME280;71102;50.960;6.888;2023-07-20T13:00:11;100990.22;;;26.95;31.48
81686;BME280;71102;50.960;6.888;2023-07-20T13:02:37;101000.31;;;29.23;27.29